createdAt,value
2023-01-17T00:02:33.077Z,96721.66
2023-01-17T00:07:53.302Z,96708.66
2023-01-17T00:12:59.002Z,96704.00
2023-01-17T00:18:00.418Z,96703.03
2023-01-17T00:23:23.731Z,96707.69
2023-01-17T00:28:25.469Z,96704.00
2023-01-17T00:33:26.950Z,96706.72
2023-01-17T00:38:29.753Z,96701.28
2023-01-17T00:43:49.420Z,96705.59
2023-01-17T00:49:09.358Z,96719.06
2023-01-17T00:54:29.366Z,96712.19
2023-01-17T00:59:49.549Z,96717.31
2023-01-17T01:05:09.281Z,96718.28
2023-01-17T01:10:29.047Z,96725.34
2023-01-17T01:15:48.727Z,96730.66
2023-01-17T01:21:08.329Z,96727.41
2023-01-17T01:26:28.126Z,96731.59
2023-01-17T01:31:47.799Z,96734.81
2023-01-17T01:36:49.187Z,96723.25
2023-01-17T01:41:50.555Z,96726.13
2023-01-17T01:46:51.939Z,96724.69
2023-01-17T01:52:00.744Z,96724.38
2023-01-17T01:57:03.005Z,96717.66
2023-01-17T02:02:04.393Z,96724.69
2023-01-17T02:07:12.318Z,96716.84
2023-01-17T02:12:13.722Z,96721.31
2023-01-17T02:17:47.174Z,96720.38
2023-01-17T02:23:12.158Z,96730.16
2023-01-17T02:28:29.022Z,96731.59
2023-01-17T02:33:43.423Z,96734.66
2023-01-17T02:38:53.906Z,96725.66
2023-01-17T02:43:55.299Z,96740.25
2023-01-17T02:48:56.691Z,96735.63
2023-01-17T02:54:22.618Z,96740.13
2023-01-17T02:59:37.868Z,96749.09
2023-01-17T03:04:48.109Z,96759.69
2023-01-17T03:09:53.328Z,96759.53
2023-01-17T03:14:54.713Z,96768.38
2023-01-17T03:19:56.109Z,96773.50
2023-01-17T03:24:57.507Z,96780.91
2023-01-17T03:29:58.910Z,96786.19
2023-01-17T03:35:00.282Z,96795.34
2023-01-17T03:40:01.678Z,96793.91
2023-01-17T03:45:03.110Z,96791.16
2023-01-17T03:50:04.763Z,96802.09
2023-01-17T03:55:06.604Z,96818.13
2023-01-17T04:00:08.469Z,96815.56
2023-01-17T04:05:09.894Z,96814.78
2023-01-17T04:10:11.386Z,96835.47
2023-01-17T04:15:12.767Z,96835.66
2023-01-17T04:20:21.916Z,96834.84
2023-01-17T04:25:23.413Z,96840.47
2023-01-17T04:30:24.942Z,96862.63
2023-01-17T04:35:26.334Z,96860.34
2023-01-17T04:40:29.367Z,96872.72
2023-01-17T04:45:30.816Z,96871.44
2023-01-17T04:50:32.585Z,96894.75
2023-01-17T04:55:34.041Z,96904.03
2023-01-17T05:00:35.452Z,96901.28
2023-01-17T05:05:36.830Z,96913.66
2023-01-17T05:10:38.205Z,96912.84
2023-01-17T05:15:39.666Z,96931.34
2023-01-17T05:20:41.111Z,96929.56
2023-01-17T05:25:44.322Z,96935.34
2023-01-17T05:30:45.841Z,96932.28
2023-01-17T05:35:47.225Z,96936.31
2023-01-17T05:40:48.621Z,96937.31
2023-01-17T05:45:50.037Z,96954.78
2023-01-17T05:50:52.131Z,96952.22
2023-01-17T05:55:53.585Z,96955.25
2023-01-17T06:00:55.193Z,96950.44
2023-01-17T06:05:56.667Z,96967.47
2023-01-17T06:10:59.406Z,96975.53
2023-01-17T06:16:02.777Z,96976.97
2023-01-17T06:21:04.289Z,96988.63
2023-01-17T06:26:07.004Z,96984.34
2023-01-17T06:31:08.799Z,96990.75
2023-01-17T06:36:10.210Z,96997.03
2023-01-17T06:41:11.585Z,97000.72
2023-01-17T06:46:13.026Z,97004.06
2023-01-17T06:51:14.517Z,97005.56
2023-01-17T06:56:15.954Z,97007.81
2023-01-17T07:01:17.491Z,97023.69
2023-01-17T07:06:18.894Z,97044.88
2023-01-17T07:11:20.275Z,97044.84
2023-01-17T07:16:21.702Z,97051.78
2023-01-17T07:21:23.096Z,97060.31
2023-01-17T07:26:24.517Z,97053.25
2023-01-17T07:31:25.962Z,97050.56
2023-01-17T07:36:27.455Z,97056.84
2023-01-17T07:41:31.820Z,97051.88
2023-01-17T07:46:33.294Z,97059.94
2023-01-17T07:51:34.789Z,97061.75
2023-01-17T07:56:36.197Z,97082.28
2023-01-17T08:01:37.794Z,97074.38
2023-01-17T08:06:39.331Z,97090.47
2023-01-17T08:11:40.727Z,97073.94
2023-01-17T08:16:42.179Z,97077.00
2023-01-17T08:21:43.569Z,97082.59
2023-01-17T08:26:45.105Z,97079.56
2023-01-17T08:31:46.599Z,97105.41
2023-01-17T08:36:47.983Z,97116.03
2023-01-17T08:41:49.403Z,97127.59
2023-01-17T08:46:50.793Z,97136.28
2023-01-17T08:51:52.599Z,97135.91
2023-01-17T08:56:55.507Z,97142.47
2023-01-17T09:01:58.158Z,97148.31
2023-01-17T09:06:59.843Z,97152.38
2023-01-17T09:12:01.232Z,97135.88
2023-01-17T09:17:02.660Z,97148.53
2023-01-17T09:22:05.136Z,97168.47
2023-01-17T09:27:06.698Z,97176.84
2023-01-17T09:32:08.145Z,97169.25
2023-01-17T09:37:09.537Z,97180.72
2023-01-17T09:42:34.468Z,97176.56
2023-01-17T09:47:46.361Z,97185.44
2023-01-17T09:52:47.757Z,97192.19
2023-01-17T09:58:08.033Z,97201.44
2023-01-17T10:03:15.598Z,97204.84
2023-01-17T10:08:41.434Z,97203.25
2023-01-17T10:13:46.289Z,97207.81
2023-01-17T10:18:59.977Z,97206.00
2023-01-17T10:24:18.460Z,97190.50
2023-01-17T10:29:21.041Z,97208.38
2023-01-17T10:34:44.260Z,97214.84
2023-01-17T10:39:47.462Z,97220.44
2023-01-17T10:44:53.204Z,97235.44
2023-01-17T10:49:55.009Z,97229.91
2023-01-17T10:55:29.141Z,97237.63
2023-01-17T11:00:51.879Z,97241.34
2023-01-17T11:06:15.207Z,97252.59
2023-01-17T11:11:16.793Z,97254.16
2023-01-17T11:16:22.692Z,97245.16
2023-01-17T11:21:24.348Z,97237.50
2023-01-17T11:26:32.852Z,97238.19
2023-01-17T11:31:34.217Z,97242.66
2023-01-17T11:36:35.602Z,97234.28
2023-01-17T11:41:40.823Z,97239.56
2023-01-17T11:46:42.213Z,97230.72
2023-01-17T11:51:43.594Z,97234.63
2023-01-17T11:56:46.201Z,97226.63
2023-01-17T12:02:11.807Z,97228.50
2023-01-17T12:07:21.427Z,97230.56
2023-01-17T12:12:53.048Z,97236.19
2023-01-17T12:18:16.142Z,97236.06
2023-01-17T12:23:30.799Z,97234.31
2023-01-17T12:28:52.434Z,97231.91
2023-01-17T12:34:15.689Z,97229.13
2023-01-17T12:39:17.879Z,97238.34
2023-01-17T12:44:19.493Z,97239.38
2023-01-17T12:49:42.862Z,97243.72
2023-01-17T12:54:56.928Z,97238.88
2023-01-17T13:00:02.184Z,97237.38
2023-01-17T13:05:23.475Z,97235.19
2023-01-17T13:10:35.403Z,97243.53
2023-01-17T13:15:37.445Z,97240.28
2023-01-17T13:21:05.929Z,97248.81
2023-01-17T13:26:17.816Z,97257.78
2023-01-17T13:31:49.119Z,97269.88
2023-01-17T13:37:16.480Z,97281.66
2023-01-17T13:42:40.603Z,97283.31
2023-01-17T13:47:42.076Z,97287.19
2023-01-17T13:52:43.447Z,97288.63
2023-01-17T13:57:46.560Z,97286.28
2023-01-17T14:02:51.719Z,97288.72
2023-01-17T14:07:59.951Z,97289.00
2023-01-17T14:13:01.695Z,97289.53
2023-01-17T14:18:03.975Z,97301.19
2023-01-17T14:23:20.881Z,97305.22
2023-01-17T14:28:29.563Z,97297.22
2023-01-17T14:33:34.991Z,97290.97
2023-01-17T14:38:41.843Z,97292.56
2023-01-17T14:43:43.386Z,97297.22
2023-01-17T14:48:45.933Z,97315.00
2023-01-17T14:53:59.886Z,97312.06
2023-01-17T14:59:27.262Z,97307.19
2023-01-17T15:04:29.942Z,97320.84
2023-01-17T15:09:37.167Z,97309.00
2023-01-17T15:14:39.949Z,97315.69
2023-01-17T15:19:43.036Z,97327.28
2023-01-17T15:24:44.597Z,97322.81
2023-01-17T15:29:46.052Z,97323.81
2023-01-17T15:34:47.988Z,97325.41
2023-01-17T15:39:49.375Z,97327.84
2023-01-17T15:44:55.093Z,97330.56
2023-01-17T15:49:56.384Z,97332.63
2023-01-17T15:55:22.437Z,97342.75
2023-01-17T16:00:26.231Z,97342.91
2023-01-17T16:05:30.625Z,97332.84
2023-01-17T16:10:36.231Z,97335.31
2023-01-17T16:15:37.823Z,97337.91
2023-01-17T16:20:41.258Z,97335.75
2023-01-17T16:25:44.294Z,97331.00
2023-01-17T16:30:46.045Z,97332.50
2023-01-17T16:35:47.434Z,97333.00
2023-01-17T16:40:48.941Z,97327.72
2023-01-17T16:45:52.710Z,97323.81
2023-01-17T16:50:54.200Z,97325.38
2023-01-17T16:55:57.830Z,97321.31
2023-01-17T17:01:00.167Z,97320.88
2023-01-17T17:06:01.635Z,97323.31
2023-01-17T17:11:13.012Z,97313.31
2023-01-17T17:16:15.969Z,97317.88
2023-01-17T17:21:17.375Z,97317.22
2023-01-17T17:26:19.125Z,97313.44
2023-01-17T17:31:20.575Z,97303.31
2023-01-17T17:36:22.445Z,97328.41
2023-01-17T17:41:28.335Z,97332.28
2023-01-17T17:46:30.017Z,97332.91
2023-01-17T17:51:35.752Z,97333.31
2023-01-17T17:56:37.253Z,97330.25
2023-01-17T18:01:40.688Z,97334.13
2023-01-17T18:06:42.159Z,97336.78
2023-01-17T18:11:43.584Z,97332.63
2023-01-17T18:16:45.033Z,97336.53
2023-01-17T18:21:46.505Z,97341.50
2023-01-17T18:26:52.380Z,97350.91
2023-01-17T18:31:53.862Z,97344.44
2023-01-17T18:36:55.360Z,97328.06
2023-01-17T18:41:56.821Z,97333.09
2023-01-17T18:47:01.825Z,97348.38
2023-01-17T18:52:03.272Z,97348.81
2023-01-17T18:57:04.662Z,97357.41
2023-01-17T19:02:06.109Z,97350.22
2023-01-17T19:07:07.617Z,97361.03
2023-01-17T19:12:09.037Z,97352.97
2023-01-17T19:17:10.430Z,97356.59
2023-01-17T19:22:11.827Z,97365.31
2023-01-17T19:27:13.824Z,97367.09
2023-01-17T19:32:15.294Z,97370.44
2023-01-17T19:37:16.748Z,97375.22
2023-01-17T19:42:18.127Z,97376.53
2023-01-17T19:47:19.521Z,97372.28
2023-01-17T19:52:22.080Z,97376.09
2023-01-17T19:57:24.199Z,97379.75
2023-01-17T20:02:26.505Z,97397.97
2023-01-17T20:07:27.936Z,97378.25
2023-01-17T20:12:30.347Z,97391.78
2023-01-17T20:17:33.839Z,97403.81
2023-01-17T20:22:35.912Z,97417.88
2023-01-17T20:27:37.964Z,97412.41
2023-01-17T20:32:39.346Z,97420.41
2023-01-17T20:37:40.813Z,97421.50
2023-01-17T20:42:42.193Z,97432.06
2023-01-17T20:47:43.608Z,97432.34
2023-01-17T20:52:45.370Z,97444.16
2023-01-17T20:57:46.769Z,97437.00
2023-01-17T21:02:48.230Z,97426.16
2023-01-17T21:07:49.702Z,97429.72
2023-01-17T21:12:51.109Z,97422.22
2023-01-17T21:17:52.486Z,97425.53
2023-01-17T21:22:53.855Z,97430.22
2023-01-17T21:27:55.715Z,97425.16
2023-01-17T21:32:57.275Z,97434.09
2023-01-17T21:37:59.034Z,97415.47
2023-01-17T21:43:00.715Z,97422.44
2023-01-17T21:48:02.115Z,97421.63
2023-01-17T21:53:03.507Z,97431.53
2023-01-17T21:58:30.752Z,97428.63
2023-01-17T22:03:32.162Z,97405.56
2023-01-17T22:08:36.302Z,97400.59
2023-01-17T22:13:40.175Z,97393.31
2023-01-17T22:18:42.183Z,97388.16
2023-01-17T22:23:50.141Z,97377.66
2023-01-17T22:28:52.634Z,97381.97
2023-01-17T22:34:02.192Z,97375.34
2023-01-17T22:39:03.659Z,97377.56
2023-01-17T22:44:08.372Z,97369.75
2023-01-17T22:49:13.254Z,97367.50
2023-01-17T22:54:14.763Z,97357.53
2023-01-17T22:59:16.189Z,97359.34
2023-01-17T23:04:17.609Z,97349.94
2023-01-17T23:09:18.995Z,97338.09
2023-01-17T23:14:23.953Z,97327.50
2023-01-17T23:19:26.246Z,97318.13
2023-01-17T23:24:27.680Z,97312.06
2023-01-17T23:29:29.063Z,97312.75
2023-01-17T23:34:30.437Z,97325.56
2023-01-17T23:39:31.821Z,97320.53
2023-01-17T23:44:33.262Z,97321.84
2023-01-17T23:49:34.633Z,97321.09
2023-01-17T23:54:36.002Z,97320.59
2023-01-17T23:59:37.427Z,97332.25
